createdAt,value
2022-10-08T00:01:30.184Z,19.89
2022-10-08T00:03:59.793Z,19.89
2022-10-08T00:06:31.384Z,19.90
2022-10-08T00:09:07.435Z,19.95
2022-10-08T00:11:38.494Z,19.92
2022-10-08T00:14:08.032Z,19.69
2022-10-08T00:16:39.626Z,19.82
2022-10-08T00:19:14.199Z,19.86
2022-10-08T00:21:45.990Z,19.89
2022-10-08T00:24:17.490Z,19.89
2022-10-08T00:26:46.049Z,19.88
2022-10-08T00:29:17.644Z,19.93
2022-10-08T00:31:49.960Z,19.91
2022-10-08T00:34:23.498Z,19.93
2022-10-08T00:36:56.258Z,19.96
2022-10-08T00:39:27.584Z,19.88
2022-10-08T00:41:57.533Z,19.82
2022-10-08T00:45:06.324Z,19.93
2022-10-08T00:47:42.201Z,19.89
2022-10-08T00:50:34.804Z,19.91
2022-10-08T00:53:08.016Z,19.84
2022-10-08T00:55:43.316Z,19.84
2022-10-08T00:58:22.505Z,19.88
2022-10-08T01:00:51.480Z,19.92
2022-10-08T01:03:37.882Z,19.80
2022-10-08T01:06:30.578Z,19.92
2022-10-08T01:09:05.779Z,19.90
2022-10-08T01:11:50.006Z,19.93
2022-10-08T01:15:12.524Z,19.94
2022-10-08T01:18:11.975Z,19.95
2022-10-08T01:21:11.065Z,19.94
2022-10-08T01:23:43.443Z,19.95
2022-10-08T01:26:36.272Z,20.00
2022-10-08T01:29:33.275Z,19.99
2022-10-08T01:32:16.892Z,19.95
2022-10-08T01:35:05.396Z,20.00
2022-10-08T01:37:56.404Z,19.89
2022-10-08T01:40:49.413Z,19.97
2022-10-08T01:43:22.715Z,19.99
2022-10-08T01:46:00.357Z,20.07
2022-10-08T01:48:38.150Z,20.07
2022-10-08T01:51:15.641Z,20.08
2022-10-08T01:53:49.750Z,20.11
2022-10-08T01:56:26.682Z,20.12
2022-10-08T01:59:09.537Z,20.15
2022-10-08T02:01:58.705Z,20.13
2022-10-08T02:04:33.713Z,20.10
2022-10-08T02:07:12.187Z,20.09
2022-10-08T02:09:53.409Z,20.11
2022-10-08T02:12:23.211Z,20.04
2022-10-08T02:14:55.056Z,20.06
2022-10-08T02:17:47.130Z,19.98
2022-10-08T02:20:45.577Z,20.07
2022-10-08T02:23:30.174Z,20.05
2022-10-08T02:26:15.367Z,20.06
2022-10-08T02:29:07.956Z,20.09
2022-10-08T02:32:04.085Z,20.14
2022-10-08T02:34:50.500Z,20.08
2022-10-08T02:37:45.613Z,20.15
2022-10-08T02:40:19.351Z,20.07
2022-10-08T02:42:57.299Z,20.16
2022-10-08T02:45:34.516Z,20.18
2022-10-08T02:48:11.775Z,20.19
2022-10-08T02:50:43.401Z,20.20
2022-10-08T02:53:19.093Z,20.17
2022-10-08T02:56:12.342Z,20.27
2022-10-08T02:58:42.772Z,20.24
2022-10-08T03:01:37.514Z,20.29
2022-10-08T03:04:25.413Z,20.30
2022-10-08T03:06:55.138Z,20.26
2022-10-08T03:09:28.647Z,20.26
2022-10-08T03:11:58.415Z,20.24
2022-10-08T03:14:28.827Z,20.26
2022-10-08T03:16:57.829Z,20.34
2022-10-08T03:19:26.211Z,20.38
2022-10-08T03:21:56.393Z,20.30
2022-10-08T03:24:24.513Z,20.29
2022-10-08T03:26:54.642Z,20.39
2022-10-08T03:29:22.806Z,20.35
2022-10-08T03:31:51.633Z,20.35
2022-10-08T03:34:22.126Z,20.39
2022-10-08T03:36:50.160Z,20.36
2022-10-08T03:39:18.770Z,20.35
2022-10-08T03:41:48.377Z,20.41
2022-10-08T03:44:16.547Z,20.39
2022-10-08T03:46:45.562Z,20.39
2022-10-08T03:49:16.618Z,20.37
2022-10-08T03:51:45.557Z,20.27
2022-10-08T03:54:14.727Z,20.36
2022-10-08T03:56:42.750Z,20.29
2022-10-08T03:59:11.621Z,20.35
2022-10-08T04:01:39.893Z,20.30
2022-10-08T04:04:09.215Z,20.33
2022-10-08T04:06:37.434Z,20.31
2022-10-08T04:09:06.385Z,20.30
2022-10-08T04:11:34.410Z,20.28
2022-10-08T04:14:02.791Z,20.29
2022-10-08T04:16:30.631Z,20.27
2022-10-08T04:18:59.065Z,20.28
2022-10-08T04:21:29.828Z,20.21
2022-10-08T04:23:57.988Z,20.27
2022-10-08T04:26:28.293Z,20.26
2022-10-08T04:28:58.471Z,20.25
2022-10-08T04:31:27.352Z,20.24
2022-10-08T04:33:57.672Z,20.16
2022-10-08T04:36:28.206Z,20.19
2022-10-08T04:38:58.685Z,20.16
2022-10-08T04:41:28.018Z,20.13
2022-10-08T04:44:03.812Z,20.17
2022-10-08T04:46:32.243Z,20.04
2022-10-08T04:49:00.603Z,20.09
2022-10-08T04:51:30.896Z,20.00
2022-10-08T04:53:58.981Z,20.07
2022-10-08T04:56:31.142Z,19.96
2022-10-08T04:59:01.407Z,19.96
2022-10-08T05:01:32.048Z,19.95
2022-10-08T05:04:00.489Z,19.86
2022-10-08T05:06:32.788Z,19.91
2022-10-08T05:09:05.178Z,19.87
2022-10-08T05:11:35.249Z,19.75
2022-10-08T05:14:05.352Z,19.80
2022-10-08T05:16:33.757Z,19.75
2022-10-08T05:19:02.219Z,19.78
2022-10-08T05:21:31.701Z,19.77
2022-10-08T05:24:07.779Z,19.74
2022-10-08T05:26:57.666Z,19.70
2022-10-08T05:29:30.350Z,19.62
2022-10-08T05:31:58.490Z,19.57
2022-10-08T05:34:26.744Z,19.59
2022-10-08T05:36:55.509Z,19.55
2022-10-08T05:39:23.485Z,19.47
2022-10-08T05:41:53.594Z,19.40
2022-10-08T05:44:22.534Z,19.36
2022-10-08T05:46:50.478Z,19.26
2022-10-08T05:49:22.810Z,19.32
2022-10-08T05:51:52.298Z,19.26
2022-10-08T05:54:22.230Z,19.22
2022-10-08T05:56:50.258Z,19.17
2022-10-08T05:59:22.649Z,19.16
2022-10-08T06:01:51.501Z,19.14
2022-10-08T06:04:19.777Z,19.13
2022-10-08T06:06:48.297Z,19.10
2022-10-08T06:09:20.570Z,19.05
2022-10-08T06:11:50.614Z,19.08
2022-10-08T06:14:20.796Z,19.11
2022-10-08T06:16:48.986Z,19.10
2022-10-08T06:19:19.073Z,19.01
2022-10-08T06:21:47.970Z,19.10
2022-10-08T06:24:15.910Z,19.09
2022-10-08T06:26:45.898Z,19.12
2022-10-08T06:29:17.593Z,19.05
2022-10-08T06:31:45.930Z,19.08
2022-10-08T06:34:20.720Z,19.19
2022-10-08T06:36:49.620Z,19.19
2022-10-08T06:39:19.241Z,19.24
2022-10-08T06:41:49.211Z,19.25
2022-10-08T06:44:19.268Z,19.28
2022-10-08T06:46:48.429Z,19.24
2022-10-08T06:49:16.987Z,19.32
2022-10-08T06:51:46.644Z,19.33
2022-10-08T06:54:14.691Z,19.34
2022-10-08T06:56:43.845Z,19.36
2022-10-08T06:59:13.940Z,19.27
2022-10-08T07:01:42.021Z,19.35
2022-10-08T07:04:13.792Z,19.34
2022-10-08T07:06:41.780Z,19.32
2022-10-08T07:09:10.423Z,19.34
2022-10-08T07:11:38.704Z,19.32
2022-10-08T07:14:06.538Z,19.37
2022-10-08T07:16:35.537Z,19.38
2022-10-08T07:19:05.745Z,19.39
2022-10-08T07:21:33.675Z,19.36
2022-10-08T07:24:02.094Z,19.29
2022-10-08T07:26:34.614Z,19.38
2022-10-08T07:29:13.741Z,19.40
2022-10-08T07:31:41.730Z,19.37
2022-10-08T07:34:12.916Z,19.41
2022-10-08T07:36:41.331Z,19.37
2022-10-08T07:39:33.823Z,19.38
2022-10-08T07:42:01.984Z,19.34
2022-10-08T07:44:50.644Z,19.37
2022-10-08T07:47:18.761Z,19.39
2022-10-08T07:49:47.441Z,19.45
2022-10-08T07:52:17.619Z,19.51
2022-10-08T07:54:45.465Z,19.55
2022-10-08T07:57:13.389Z,19.54
2022-10-08T07:59:42.272Z,19.66
2022-10-08T08:02:10.095Z,19.67
2022-10-08T08:04:37.767Z,19.72
2022-10-08T08:07:05.521Z,19.72
2022-10-08T08:09:34.094Z,19.80
2022-10-08T08:12:02.014Z,19.72
2022-10-08T08:14:30.079Z,19.81
2022-10-08T08:16:57.983Z,19.83
2022-10-08T08:19:27.375Z,19.90
2022-10-08T08:21:55.194Z,19.94
2022-10-08T08:24:23.954Z,19.97
2022-10-08T08:26:57.841Z,20.03
2022-10-08T08:29:26.905Z,20.07
2022-10-08T08:31:54.970Z,20.13
2022-10-08T08:34:25.140Z,20.19
2022-10-08T08:36:53.897Z,20.18
2022-10-08T08:39:25.190Z,20.24
2022-10-08T08:42:18.248Z,20.22
2022-10-08T08:45:28.210Z,20.20
2022-10-08T08:48:26.693Z,20.14
2022-10-08T08:50:57.788Z,20.12
2022-10-08T08:53:26.105Z,20.13
2022-10-08T08:55:58.908Z,20.18
2022-10-08T08:58:37.542Z,20.24
2022-10-08T09:01:40.324Z,20.18
2022-10-08T09:04:48.345Z,20.28
2022-10-08T09:07:22.351Z,20.34
2022-10-08T09:09:55.373Z,20.40
2022-10-08T09:12:41.429Z,20.47
2022-10-08T09:15:26.931Z,20.54
2022-10-08T09:17:54.880Z,20.53
2022-10-08T09:20:25.554Z,20.61
2022-10-08T09:22:55.185Z,20.67
2022-10-08T09:25:28.153Z,20.70
2022-10-08T09:28:04.087Z,20.72
2022-10-08T09:30:42.846Z,20.76
2022-10-08T09:33:22.868Z,20.79
2022-10-08T09:35:53.960Z,20.79
2022-10-08T09:38:28.842Z,20.86
2022-10-08T09:41:19.120Z,20.95
2022-10-08T09:44:25.312Z,20.94
2022-10-08T09:47:07.103Z,21.01
2022-10-08T09:49:39.955Z,21.05
2022-10-08T09:52:19.502Z,21.10
2022-10-08T09:54:52.345Z,21.03
2022-10-08T09:57:23.010Z,21.04
2022-10-08T10:00:01.475Z,21.14
2022-10-08T10:02:33.316Z,21.15
2022-10-08T10:05:21.399Z,21.15
2022-10-08T10:07:49.167Z,21.13
2022-10-08T10:10:48.703Z,21.19
2022-10-08T10:13:34.456Z,21.23
2022-10-08T10:16:10.098Z,21.24
2022-10-08T10:19:04.076Z,21.32
2022-10-08T10:22:01.133Z,21.34
2022-10-08T10:24:43.066Z,21.31
2022-10-08T10:27:39.849Z,21.38
2022-10-08T10:30:22.446Z,21.43
2022-10-08T10:33:02.699Z,21.52
2022-10-08T10:35:32.723Z,21.63
2022-10-08T10:38:24.005Z,21.71
2022-10-08T10:41:46.676Z,21.66
2022-10-08T10:44:21.904Z,21.71
2022-10-08T10:47:00.050Z,21.79
2022-10-08T10:49:38.605Z,21.81
2022-10-08T10:52:31.653Z,21.86
2022-10-08T10:55:40.677Z,21.89
2022-10-08T10:58:35.017Z,21.96
2022-10-08T11:01:34.617Z,21.97
2022-10-08T11:04:23.413Z,21.93
2022-10-08T11:08:09.995Z,21.92
2022-10-08T11:10:50.818Z,21.91
2022-10-08T11:13:47.878Z,21.93
2022-10-08T11:16:37.507Z,21.92
2022-10-08T11:19:13.222Z,21.83
2022-10-08T11:22:27.788Z,21.79
2022-10-08T11:25:06.259Z,21.90
2022-10-08T11:28:18.668Z,22.03
2022-10-08T11:31:24.192Z,22.17
2022-10-08T11:33:56.391Z,22.21
2022-10-08T11:36:58.432Z,22.36
2022-10-08T11:39:46.105Z,22.48
2022-10-08T11:42:49.007Z,22.60
2022-10-08T11:45:28.697Z,22.71
2022-10-08T11:48:00.290Z,22.76
2022-10-08T11:50:37.599Z,22.89
2022-10-08T11:53:13.616Z,22.97
2022-10-08T11:55:57.679Z,23.05
2022-10-08T11:58:33.068Z,23.14
2022-10-08T12:01:10.397Z,23.21
2022-10-08T12:03:41.799Z,23.27
2022-10-08T12:06:18.055Z,23.33
2022-10-08T12:08:59.228Z,23.35
2022-10-08T12:11:30.061Z,23.35
2022-10-08T12:14:15.814Z,23.39
2022-10-08T12:16:55.412Z,23.43
2022-10-08T12:19:38.449Z,23.41
2022-10-08T12:22:16.475Z,23.40
2022-10-08T12:24:49.570Z,23.38
2022-10-08T12:27:18.417Z,23.40
2022-10-08T12:30:03.402Z,23.46
2022-10-08T12:32:44.010Z,23.37
2022-10-08T12:35:47.850Z,23.26
2022-10-08T12:38:22.112Z,23.40
2022-10-08T12:40:58.035Z,23.42
2022-10-08T12:44:04.802Z,23.40
2022-10-08T12:46:55.009Z,23.46
2022-10-08T12:49:52.238Z,23.53
2022-10-08T12:52:21.710Z,23.51
2022-10-08T12:54:58.194Z,23.58
2022-10-08T12:57:34.570Z,23.59
2022-10-08T13:00:26.401Z,23.63
2022-10-08T13:03:12.467Z,23.66
2022-10-08T13:05:45.442Z,23.67
2022-10-08T13:08:34.380Z,23.75
2022-10-08T13:11:15.765Z,23.79
2022-10-08T13:13:51.326Z,23.54
2022-10-08T13:16:26.732Z,23.67
2022-10-08T13:18:58.687Z,23.68
2022-10-08T13:21:32.485Z,23.74
2022-10-08T13:24:26.513Z,23.73
2022-10-08T13:26:57.304Z,23.69
2022-10-08T13:29:26.424Z,23.69
2022-10-08T13:32:13.646Z,23.72
2022-10-08T13:34:47.965Z,23.64
2022-10-08T13:37:36.412Z,23.64
2022-10-08T13:40:19.542Z,23.63
2022-10-08T13:42:55.371Z,23.62
2022-10-08T13:45:30.729Z,23.60
2022-10-08T13:47:59.188Z,23.61
2022-10-08T13:50:27.200Z,23.64
2022-10-08T13:52:59.224Z,23.64
2022-10-08T13:55:36.399Z,23.62
2022-10-08T13:58:07.762Z,23.60
2022-10-08T14:00:39.948Z,23.61
2022-10-08T14:03:10.679Z,23.49
2022-10-08T14:05:43.508Z,23.60
2022-10-08T14:08:23.611Z,23.63
2022-10-08T14:10:57.583Z,23.57
2022-10-08T14:13:27.045Z,23.59
2022-10-08T14:15:58.359Z,23.55
2022-10-08T14:18:26.788Z,23.51
2022-10-08T14:20:55.891Z,23.55
2022-10-08T14:23:23.528Z,23.49
2022-10-08T14:25:51.925Z,23.47
2022-10-08T14:28:20.574Z,23.36
2022-10-08T14:30:48.738Z,23.37
2022-10-08T14:33:17.133Z,23.35
2022-10-08T14:35:45.373Z,23.25
2022-10-08T14:38:15.434Z,23.30
2022-10-08T14:40:44.971Z,23.29
2022-10-08T14:43:13.209Z,23.29
2022-10-08T14:45:42.644Z,23.27
2022-10-08T14:48:11.235Z,23.26
2022-10-08T14:50:38.981Z,23.26
2022-10-08T14:53:11.420Z,23.29
2022-10-08T14:56:07.566Z,23.30
2022-10-08T14:58:30.012Z,23.23
2022-10-08T15:00:58.740Z,23.25
2022-10-08T15:03:28.254Z,23.31
2022-10-08T15:06:00.180Z,23.34
2022-10-08T15:08:29.253Z,23.33
2022-10-08T15:10:57.233Z,23.33
2022-10-08T15:13:26.007Z,23.37
2022-10-08T15:15:55.112Z,23.34
2022-10-08T15:18:25.859Z,23.35
2022-10-08T15:20:59.756Z,23.34
2022-10-08T15:23:28.403Z,23.30
2022-10-08T15:26:01.432Z,23.34
2022-10-08T15:28:30.847Z,23.36
2022-10-08T15:31:04.736Z,23.36
2022-10-08T15:33:43.387Z,23.37
2022-10-08T15:36:25.467Z,23.37
2022-10-08T15:39:12.192Z,23.34
2022-10-08T15:41:45.505Z,23.30
2022-10-08T15:44:30.846Z,23.32
2022-10-08T15:47:06.235Z,23.23
2022-10-08T15:49:40.541Z,23.20
2022-10-08T15:52:12.572Z,23.12
2022-10-08T15:54:44.777Z,23.03
2022-10-08T15:57:16.659Z,23.01
2022-10-08T15:59:46.426Z,22.95
2022-10-08T16:02:17.645Z,22.92
2022-10-08T16:04:47.938Z,22.78
2022-10-08T16:07:18.952Z,22.83
2022-10-08T16:09:47.377Z,22.67
2022-10-08T16:12:15.921Z,22.66
2022-10-08T16:14:43.832Z,22.61
2022-10-08T16:17:13.447Z,22.60
2022-10-08T16:19:42.984Z,22.58
2022-10-08T16:22:11.304Z,22.51
2022-10-08T16:24:39.863Z,22.45
2022-10-08T16:27:09.762Z,22.31
2022-10-08T16:29:37.812Z,22.33
2022-10-08T16:32:06.819Z,22.31
2022-10-08T16:34:35.631Z,22.27
2022-10-08T16:37:05.229Z,22.22
2022-10-08T16:39:33.475Z,22.14
2022-10-08T16:42:05.225Z,22.10
2022-10-08T16:44:33.975Z,21.99
2022-10-08T16:47:02.532Z,21.92
2022-10-08T16:49:30.927Z,21.90
2022-10-08T16:52:05.540Z,21.85
2022-10-08T16:54:33.707Z,21.76
2022-10-08T16:57:02.030Z,21.70
2022-10-08T16:59:33.196Z,21.67
2022-10-08T17:02:01.401Z,21.54
2022-10-08T17:04:39.218Z,21.48
2022-10-08T17:07:08.384Z,21.37
2022-10-08T17:09:37.645Z,21.34
2022-10-08T17:12:06.207Z,21.25
2022-10-08T17:14:37.456Z,21.21
2022-10-08T17:17:08.263Z,21.13
2022-10-08T17:19:39.616Z,21.15
2022-10-08T17:22:10.762Z,21.04
2022-10-08T17:24:42.346Z,20.93
2022-10-08T17:27:12.674Z,20.80
2022-10-08T17:29:42.283Z,20.72
2022-10-08T17:32:11.661Z,20.56
2022-10-08T17:34:39.771Z,20.39
2022-10-08T17:37:08.258Z,20.31
2022-10-08T17:39:40.596Z,20.18
2022-10-08T17:42:12.008Z,20.17
2022-10-08T17:44:40.404Z,20.08
2022-10-08T17:47:08.484Z,20.03
2022-10-08T17:49:37.865Z,19.97
2022-10-08T17:52:06.132Z,19.92
2022-10-08T17:54:34.513Z,19.88
2022-10-08T17:57:04.913Z,19.80
2022-10-08T17:59:34.112Z,19.80
2022-10-08T18:02:02.839Z,19.76
2022-10-08T18:04:30.902Z,19.69
2022-10-08T18:07:03.239Z,19.70
2022-10-08T18:09:31.497Z,19.59
2022-10-08T18:11:59.858Z,19.64
2022-10-08T18:14:28.486Z,19.57
2022-10-08T18:16:57.435Z,19.54
2022-10-08T18:19:26.793Z,19.51
2022-10-08T18:21:55.110Z,19.43
2022-10-08T18:24:23.068Z,19.37
2022-10-08T18:26:51.728Z,19.32
2022-10-08T18:29:20.407Z,19.27
2022-10-08T18:31:48.508Z,19.16
2022-10-08T18:34:18.557Z,19.18
2022-10-08T18:36:46.986Z,19.16
2022-10-08T18:39:18.384Z,19.16
2022-10-08T18:41:49.280Z,19.14
2022-10-08T18:44:22.050Z,19.13
2022-10-08T18:46:51.863Z,19.11
2022-10-08T18:49:30.320Z,19.08
2022-10-08T18:51:59.772Z,19.05
2022-10-08T18:54:29.812Z,19.03
2022-10-08T18:57:01.325Z,18.94
2022-10-08T18:59:31.072Z,18.93
2022-10-08T19:02:01.119Z,18.90
2022-10-08T19:04:30.666Z,18.83
2022-10-08T19:06:58.624Z,18.79
2022-10-08T19:09:26.892Z,18.68
2022-10-08T19:11:57.413Z,18.67
2022-10-08T19:14:25.813Z,18.73
2022-10-08T19:16:53.892Z,18.69
2022-10-08T19:19:25.252Z,18.74
2022-10-08T19:21:55.651Z,18.48
2022-10-08T19:24:26.262Z,18.49
2022-10-08T19:26:56.711Z,18.40
2022-10-08T19:29:29.413Z,18.40
2022-10-08T19:31:58.479Z,18.31
2022-10-08T19:34:28.263Z,18.21
2022-10-08T19:36:57.151Z,18.17
2022-10-08T19:39:29.306Z,18.01
2022-10-08T19:41:57.578Z,17.90
2022-10-08T19:44:26.015Z,17.96
2022-10-08T19:46:55.441Z,17.89
2022-10-08T19:49:23.863Z,17.83
2022-10-08T19:51:53.931Z,17.78
2022-10-08T19:54:23.589Z,17.73
2022-10-08T19:56:53.940Z,17.67
2022-10-08T19:59:22.389Z,17.68
2022-10-08T20:01:50.738Z,17.66
2022-10-08T20:04:22.345Z,17.60
2022-10-08T20:06:51.680Z,17.52
2022-10-08T20:09:20.029Z,17.49
2022-10-08T20:11:48.329Z,17.47
2022-10-08T20:14:16.234Z,17.49
2022-10-08T20:16:44.844Z,17.47
2022-10-08T20:19:20.604Z,17.48
2022-10-08T20:21:51.834Z,17.40
2022-10-08T20:24:20.170Z,17.13
2022-10-08T20:26:52.123Z,17.25
2022-10-08T20:29:22.082Z,17.22
2022-10-08T20:31:55.437Z,17.20
2022-10-08T20:34:28.878Z,17.17
2022-10-08T20:36:58.680Z,17.13
2022-10-08T20:39:27.510Z,17.04
2022-10-08T20:41:56.780Z,16.95
2022-10-08T20:44:24.736Z,16.96
2022-10-08T20:46:52.849Z,16.95
2022-10-08T20:49:21.360Z,16.92
2022-10-08T20:51:49.981Z,16.75
2022-10-08T20:54:18.686Z,16.82
2022-10-08T20:56:48.844Z,16.83
2022-10-08T20:59:19.114Z,16.79
2022-10-08T21:01:49.688Z,16.87
2022-10-08T21:04:20.489Z,16.88
2022-10-08T21:06:52.385Z,16.91
2022-10-08T21:09:22.207Z,16.88
2022-10-08T21:11:50.045Z,16.90
2022-10-08T21:14:22.065Z,16.90
2022-10-08T21:16:51.608Z,16.82
2022-10-08T21:19:24.013Z,16.76
2022-10-08T21:21:52.976Z,16.74
2022-10-08T21:24:23.038Z,16.73
2022-10-08T21:26:52.448Z,16.74
2022-10-08T21:29:20.775Z,16.79
2022-10-08T21:31:49.538Z,16.70
2022-10-08T21:34:18.271Z,16.82
2022-10-08T21:36:46.770Z,16.69
2022-10-08T21:39:17.470Z,16.76
2022-10-08T21:41:47.238Z,16.70
2022-10-08T21:44:15.540Z,16.68
2022-10-08T21:46:45.590Z,16.69
2022-10-08T21:49:20.859Z,16.65
2022-10-08T21:51:49.000Z,16.61
2022-10-08T21:54:17.503Z,16.66
2022-10-08T21:56:46.093Z,16.65
2022-10-08T21:59:15.857Z,16.61
2022-10-08T22:01:52.794Z,16.60
2022-10-08T22:04:25.593Z,16.57
2022-10-08T22:07:00.128Z,16.55
2022-10-08T22:09:31.025Z,16.55
2022-10-08T22:12:00.677Z,16.52
2022-10-08T22:14:30.325Z,16.46
2022-10-08T22:16:58.655Z,16.52
2022-10-08T22:19:27.560Z,16.52
2022-10-08T22:21:58.703Z,16.47
2022-10-08T22:24:27.110Z,16.39
2022-10-08T22:26:59.780Z,16.31
2022-10-08T22:29:29.947Z,16.23
2022-10-08T22:31:58.101Z,16.18
2022-10-08T22:34:26.691Z,16.11
2022-10-08T22:36:55.007Z,16.10
2022-10-08T22:39:23.063Z,15.93
2022-10-08T22:41:52.179Z,15.99
2022-10-08T22:44:22.832Z,15.94
2022-10-08T22:46:51.330Z,15.87
2022-10-08T22:49:19.932Z,15.86
2022-10-08T22:51:48.326Z,15.79
2022-10-08T22:54:16.424Z,15.83
2022-10-08T22:56:45.141Z,15.81
2022-10-08T22:59:14.024Z,15.73
2022-10-08T23:01:42.329Z,15.78
2022-10-08T23:04:10.453Z,15.72
2022-10-08T23:06:42.564Z,15.76
2022-10-08T23:09:13.129Z,15.72
2022-10-08T23:11:41.023Z,15.74
2022-10-08T23:14:10.705Z,15.82
2022-10-08T23:16:38.803Z,15.82
2022-10-08T23:19:14.144Z,15.80
2022-10-08T23:21:44.443Z,15.77
2022-10-08T23:24:13.513Z,15.72
2022-10-08T23:26:41.586Z,15.73
2022-10-08T23:29:11.871Z,15.69
2022-10-08T23:31:42.504Z,15.72
2022-10-08T23:34:10.788Z,15.66
2022-10-08T23:36:44.094Z,15.70
2022-10-08T23:39:17.644Z,15.73
2022-10-08T23:41:45.670Z,15.75
2022-10-08T23:44:14.016Z,15.76
2022-10-08T23:46:43.153Z,15.69
2022-10-08T23:49:11.137Z,15.71
2022-10-08T23:51:40.395Z,15.65
2022-10-08T23:54:10.576Z,15.61
2022-10-08T23:56:38.367Z,15.63
2022-10-08T23:59:07.297Z,15.66
